Apopka, FL

2:12 PM EDT on October 25, 2014 (GMT -0400)
Bear/Piedmont Lake | Change Station
CLOSE
Current Station
Personal Weather Station
Location: Apopka, FL
Elevation: 154 ft
Nearby Weather Stations

Elev 154 ft 28.66 °N, 81.46 °W | Updated 11 minutes ago

Clear
Clear
81.0 °F
Feels Like 81 °F
N
3.2
Wind Variable Wind from SSE

Today
High -- | Low -- °F
--% Chance of Precip.
Yesterday
High -- | Low -- °F
Precip. -- in
7:33 AM 6:46 PM
Waxing Crescent, 4% visible
Pressure 29.97 in
Visibility 10.0 miles
Clouds Clear
Heat Index 81 °F
Dew Point 59 °F
Humidity 47%
Rainfall 0.00 in
Snow Depth Not available.
UV 8 out of 12
Pollen 5.80 out of 12
Ozone Good
PM2.5 Good
Flu Activity Local Activity
METAR KORL 251753Z VRB03KT 10SM CLR 26/14 A2996 RMK AO2 SLP149 T02610139 10272 20178 58014

More Conditions Fewer Conditions

Pressure 29.97 in
Visibility 10.0 miles
Clouds Clear
Heat Index 81 °F
Dew Point 59 °F
Humidity 47%
Rainfall 0.00 in
Snow Depth Not available.
UV 8 out of 12
Pollen 5.80 out of 12
Ozone Good
PM2.5 Good
Flu Activity Local Activity
METAR KORL 251753Z VRB03KT 10SM CLR 26/14 A2996 RMK AO2 SLP149 T02610139 10272 20178 58014

More Conditions Fewer Conditions

10-Day Weather Forecast

Almanac

Astronomy

Oct. 25, 2014 Rise Set
Actual Time 7:33 AM EDT 6:46 PM EDT
Civil Twilight 7:09 AM EDT 7:10 PM EDT
Nautical Twilight 6:41 AM EDT 7:38 PM EDT
Astronomical Twilight 6:13 AM EDT 8:05 PM EDT
Moon 9:05 AM EDT 8:15 PM EDT
Length of Visible Light 12h 01m
Length of Day
11h 13m
Tomorrow will be 1m 35s shorter.
Waxing Crescent, 4% of the Moon is Illuminated
Today
Waxing Crescent
Oct 30
First Quarter
Nov 6
Full
Nov 14
Last Quarter
Nov 22
New

Today's Extremes

State Highs State Lows

Community

WunderPhotos

Upload Photos

1,764,928 photos uploaded!

Nearby

Air Quality

  Air Quality AQ Index Pollutant
Yesterday Good
OZONE
Yesterday Good
PM2.5
Current Good
OZONE
Current Good
PM2.5
Saturday Good
OZONE

Snow Depth

Station Depth Elevation
No new snow has been reported.

Earthquake Activity

City Distance Mag. Time & Date
No recent earthquake activity has been reported nearby.
Minimum magnitude displayed is 2.5.

Coastal Water Temperatures

Place Temperature
No Stations Reporting

Nearby Weather Stations